Time;durP1;ratioP1;P1;durP2;ratioP2;P2;SDS_P1;SDS_P2;PMS_P1;PMS_P2;Temp;Humidity;BMP_temperature;BMP_pressure;BME280_temperature;BME280_humidity;BME280_pressure;Samples;Min_cycle;Max_cycle;Signal;HPM_P1;HPM_P2
2024/04/13 00:00:20;;;;;;;12.43;5.90;;;;;;;20.64;55.80;100485.75;5448251;26;20022;-40
2024/04/13 00:02:45;;;;;;;8.13;5.65;;;;;;;20.75;55.47;100473.13;5448666;26;19990;-37
2024/04/13 00:05:11;;;;;;;14.50;6.15;;;;;;;20.69;55.72;100461.47;5448509;26;20005;-39
2024/04/13 00:07:37;;;;;;;10.45;6.10;;;;;;;20.72;55.67;100470.97;5448503;26;20010;-36
2024/04/13 00:10:05;;;;;;;10.50;6.10;;;;;;;20.75;55.61;100480.44;5448167;26;20009;-39
2024/04/13 00:12:31;;;;;;;8.55;6.00;;;;;;;20.82;55.05;100486.47;5448458;26;20133;-39
2024/04/13 00:14:56;;;;;;;7.28;5.75;;;;;;;20.75;55.63;100491.25;5448602;26;20372;-38
2024/04/13 00:17:24;;;;;;;8.57;6.18;;;;;;;20.65;55.59;100481.94;5445777;26;20002;-36
2024/04/13 00:19:50;;;;;;;9.40;6.13;;;;;;;20.72;55.47;100483.66;5416024;26;20003;-36
2024/04/13 00:22:17;;;;;;;8.52;5.80;;;;;;;20.81;55.05;100480.25;5415850;26;19996;-38
2024/04/13 00:24:43;;;;;;;9.55;6.40;;;;;;;20.79;55.07;100478.88;5415827;26;19995;-39
2024/04/13 00:27:08;;;;;;;12.70;6.13;;;;;;;20.78;55.02;100482.66;5413992;26;20347;-39
2024/04/13 00:29:33;;;;;;;11.20;6.20;;;;;;;20.72;55.37;100487.19;5416100;26;20007;-38
2024/04/13 00:31:59;;;;;;;10.35;6.47;;;;;;;20.65;56.11;100484.66;5415451;26;19999;-36
2024/04/13 00:34:24;;;;;;;8.07;5.93;;;;;;;20.55;56.20;100492.63;5416000;26;20072;-37
2024/04/13 00:36:49;;;;;;;10.48;6.40;;;;;;;20.55;56.33;100484.50;5416245;26;20024;-39
2024/04/13 00:39:15;;;;;;;10.55;5.80;;;;;;;20.58;56.24;100489.44;5415312;26;20331;-36
2024/04/13 00:41:40;;;;;;;11.95;6.30;;;;;;;20.54;56.20;100480.16;5415162;26;20436;-35
2024/04/13 00:44:06;;;;;;;9.15;6.22;;;;;;;20.51;56.48;100480.69;5415100;26;20384;-40
2024/04/13 00:46:32;;;;;;;10.93;6.30;;;;;;;20.48;56.43;100473.06;5414940;26;20125;-40
2024/04/13 00:49:10;;;;;;;9.82;6.05;;;;;;;20.49;56.25;100483.63;5414828;26;20002;-39
2024/04/13 00:51:36;;;;;;;9.57;6.43;;;;;;;20.36;57.12;100473.19;5414877;26;20010;-36
2024/04/13 00:54:02;;;;;;;12.38;6.57;;;;;;;20.33;57.37;100478.28;5415075;26;19995;-39
2024/04/13 00:56:27;;;;;;;12.65;6.65;;;;;;;20.28;57.41;100484.44;5415477;26;20423;-38
2024/04/13 00:58:53;;;;;;;17.02;7.07;;;;;;;20.30;57.48;100482.31;5415151;26;19991;-36
2024/04/13 01:01:19;;;;;;;9.75;6.38;;;;;;;20.26;57.22;100490.09;5414782;26;20014;-39
2024/04/13 01:03:45;;;;;;;11.05;6.57;;;;;;;20.44;57.20;100496.25;5414817;26;20057;-37
2024/04/13 01:06:11;;;;;;;12.45;6.75;;;;;;;20.10;58.17;100490.94;5415268;26;20003;-35
2024/04/13 01:08:37;;;;;;;12.45;7.07;;;;;;;19.66;59.29;100480.78;5414662;26;20007;-36
2024/04/13 01:11:03;;;;;;;13.52;7.18;;;;;;;19.70;59.37;100483.81;5414682;26;19995;-37
2024/04/13 01:13:29;;;;;;;9.98;6.80;;;;;;;19.67;59.78;100468.94;5444694;26;19999;-35
2024/04/13 01:15:54;;;;;;;12.40;7.03;;;;;;;19.70;59.62;100464.94;5450935;26;20330;-37
2024/04/13 01:18:20;;;;;;;11.02;7.45;;;;;;;19.85;59.53;100478.69;5450824;26;20010;-38
2024/04/13 01:20:45;;;;;;;10.18;7.13;;;;;;;19.73;59.93;100478.78;5451020;26;19995;-37
2024/04/13 01:23:14;;;;;;;13.20;7.60;;;;;;;19.86;59.82;100476.84;5452502;26;20002;-38
2024/04/13 01:25:42;;;;;;;11.07;7.17;;;;;;;19.91;59.47;100477.72;5452640;26;20063;-39
2024/04/13 01:28:09;;;;;;;10.43;7.00;;;;;;;19.79;59.40;100474.28;5451868;26;20068;-37
2024/04/13 01:30:35;;;;;;;10.23;6.68;;;;;;;19.82;59.46;100468.41;5450905;26;20013;-39
2024/04/13 01:33:01;;;;;;;11.73;7.72;;;;;;;19.80;59.17;100465.13;5452794;26;19991;-37
2024/04/13 01:35:26;;;;;;;11.98;8.25;;;;;;;19.75;57.07;100462.34;5452684;26;20430;-38
2024/04/13 01:37:52;;;;;;;10.00;7.57;;;;;;;19.83;57.45;100469.22;5452578;26;20070;-40
2024/04/13 01:40:17;;;;;;;19.23;8.98;;;;;;;19.84;57.00;100468.16;5452283;26;20006;-39
2024/04/13 01:42:44;;;;;;;15.85;8.30;;;;;;;19.76;56.72;100461.25;5452328;26;19994;-36
2024/04/13 01:45:09;;;;;;;14.35;8.57;;;;;;;19.78;56.44;100455.63;5451458;26;20002;-35
2024/04/13 01:47:35;;;;;;;14.60;8.15;;;;;;;19.87;57.11;100465.75;5452355;26;20006;-38
2024/04/13 01:50:01;;;;;;;11.85;7.75;;;;;;;19.97;57.16;100461.56;5452142;26;20006;-40
2024/04/13 01:52:27;;;;;;;12.40;8.27;;;;;;;19.95;56.10;100455.59;5452033;26;20437;-38
2024/04/13 01:54:53;;;;;;;13.95;8.15;;;;;;;19.88;54.76;100455.78;5451845;26;19990;-39
2024/04/13 01:57:18;;;;;;;14.20;8.35;;;;;;;19.65;54.22;100457.56;5452286;26;20487;-39
2024/04/13 01:59:44;;;;;;;12.75;8.10;;;;;;;19.74;51.98;100455.28;5451897;26;20048;-37
2024/04/13 02:02:10;;;;;;;10.63;7.88;;;;;;;19.48;51.68;100454.06;5452706;26;19995;-38
2024/04/13 02:04:36;;;;;;;14.85;7.85;;;;;;;19.33;50.97;100460.03;5452502;26;20112;-37
2024/04/13 02:07:02;;;;;;;14.77;8.00;;;;;;;19.10;51.09;100440.22;5452031;26;20006;-36
2024/04/13 02:09:28;;;;;;;14.90;7.60;;;;;;;18.82;51.79;100448.31;5451392;26;20066;-39
2024/04/13 02:11:53;;;;;;;11.95;7.43;;;;;;;18.98;51.60;100442.13;5451887;26;20004;-36
2024/04/13 02:14:19;;;;;;;11.35;7.32;;;;;;;18.95;51.74;100445.34;5452757;26;20376;-38
2024/04/13 02:16:44;;;;;;;12.40;7.88;;;;;;;19.20;51.24;100453.06;5451730;26;20350;-35
2024/04/13 02:19:09;;;;;;;10.98;7.65;;;;;;;19.06;52.02;100446.34;5451670;26;19991;-36
2024/04/13 02:21:35;;;;;;;12.68;7.88;;;;;;;19.23;51.79;100443.66;5451343;26;20001;-38
2024/04/13 02:24:01;;;;;;;14.43;7.95;;;;;;;19.33;51.91;100441.94;5451666;26;20011;-39
2024/04/13 02:26:28;;;;;;;13.07;8.15;;;;;;;19.27;52.07;100450.22;5452126;26;19991;-39
2024/04/13 02:28:53;;;;;;;14.40;8.30;;;;;;;19.34;52.08;100443.59;5451390;26;20331;-37
2024/04/13 02:31:19;;;;;;;12.95;7.93;;;;;;;19.28;52.57;100443.75;5451229;26;19990;-39
2024/04/13 02:33:44;;;;;;;11.13;8.82;;;;;;;19.19;53.02;100451.44;5451700;26;20384;-41
2024/04/13 02:36:09;;;;;;;14.10;8.55;;;;;;;19.02;53.39;100440.63;5451841;26;20418;-40
2024/04/13 02:38:35;;;;;;;14.38;8.82;;;;;;;18.47;54.60;100451.94;5451265;26;20002;-43
2024/04/13 02:41:01;;;;;;;14.70;8.60;;;;;;;18.66;54.35;100448.00;5450839;26;20001;-37
2024/04/13 02:43:35;;;;;;;16.70;9.45;;;;;;;18.90;53.96;100440.66;5451115;26;19991;-38
2024/04/13 02:46:11;;;;;;;16.05;9.23;;;;;;;19.13;53.12;100449.69;5451021;26;20002;-40
2024/04/13 02:48:41;;;;;;;12.18;8.95;;;;;;;18.99;53.47;100438.38;5450777;26;20001;-39
2024/04/13 02:51:08;;;;;;;12.32;8.68;;;;;;;18.94;53.76;100446.38;5452199;26;19991;-37
2024/04/13 02:53:34;;;;;;;14.48;8.98;;;;;;;18.92;53.70;100445.81;5451833;26;20030;-38
2024/04/13 02:56:01;;;;;;;11.25;8.30;;;;;;;18.94;53.74;100440.97;5451497;26;19991;-38
2024/04/13 02:58:26;;;;;;;11.63;8.20;;;;;;;18.99;53.39;100446.47;5451038;26;20005;-35
2024/04/13 03:00:59;;;;;;;11.35;8.30;;;;;;;18.95;53.83;100434.53;5451591;26;19995;-39
2024/04/13 03:03:28;;;;;;;14.50;8.32;;;;;;;18.75;53.79;100438.47;5451753;26;20005;-36
2024/04/13 03:06:03;;;;;;;13.02;8.13;;;;;;;18.48;54.73;100451.66;5452684;26;19999;-36
2024/04/13 03:08:30;;;;;;;12.13;7.68;;;;;;;18.76;54.37;100447.38;5451322;26;20080;-38
2024/04/13 03:10:57;;;;;;;12.50;8.32;;;;;;;18.98;53.37;100444.81;5451357;26;20002;-39
2024/04/13 03:13:23;;;;;;;13.90;8.20;;;;;;;18.95;53.20;100439.94;5451594;26;20128;-38
2024/04/13 03:16:12;;;;;;;13.40;7.75;;;;;;;18.99;53.54;100449.19;5451489;26;19990;-39
2024/04/13 03:18:39;;;;;;;12.32;8.20;;;;;;;19.02;53.08;100454.09;5451048;26;20007;-38
2024/04/13 03:21:05;;;;;;;10.98;7.95;;;;;;;19.26;52.36;100459.34;5449770;26;19995;-40
2024/04/13 03:23:32;;;;;;;10.23;7.63;;;;;;;19.06;52.94;100455.25;5450444;26;19994;-40
2024/04/13 03:25:58;;;;;;;12.07;7.70;;;;;;;19.02;53.13;100454.09;5450585;26;20001;-38
2024/04/13 03:28:26;;;;;;;13.32;8.20;;;;;;;19.04;52.93;100460.06;5421887;26;19995;-40
2024/04/13 03:30:51;;;;;;;12.18;7.63;;;;;;;19.25;52.60;100460.44;5443211;26;20401;-39
2024/04/13 03:33:16;;;;;;;11.27;7.97;;;;;;;19.53;51.94;100454.97;5450688;26;19991;-39
2024/04/13 03:35:42;;;;;;;10.70;7.60;;;;;;;19.49;51.99;100461.91;5450702;26;20006;-39
2024/04/13 03:38:07;;;;;;;12.98;7.05;;;;;;;19.63;51.66;100458.88;5450323;26;20276;-40
2024/04/13 03:40:36;;;;;;;12.68;7.57;;;;;;;19.59;52.02;100458.56;5450524;26;19994;-39
2024/04/13 03:43:04;;;;;;;11.30;7.53;;;;;;;19.57;51.92;100454.47;5450625;26;20410;-39
2024/04/13 03:45:30;;;;;;;10.95;7.45;;;;;;;19.58;52.16;100445.31;5450459;26;19995;-40
2024/04/13 03:47:56;;;;;;;12.25;7.25;;;;;;;19.59;51.96;100445.06;5450171;26;20443;-39
2024/04/13 03:50:21;;;;;;;13.13;7.55;;;;;;;19.68;51.83;100446.25;5451307;26;20067;-39
2024/04/13 03:52:47;;;;;;;12.73;7.47;;;;;;;19.75;51.54;100445.34;5449165;26;20105;-39
2024/04/13 03:55:13;;;;;;;10.90;7.30;;;;;;;19.78;51.34;100451.06;5450369;26;19999;-39
2024/04/13 03:57:38;;;;;;;11.38;6.95;;;;;;;19.79;51.45;100444.59;5449875;26;19995;-39
2024/04/13 04:00:08;;;;;;;9.85;7.68;;;;;;;19.84;51.85;100449.25;5449819;26;19991;-38
2024/04/13 04:02:34;;;;;;;;;;;;;;;20.06;51.26;100447.38;5451383;26;20018;-39
2024/04/13 04:05:00;;;;;;;12.27;8.50;;;;;;;19.94;51.96;100448.59;5450605;26;20385;-40
2024/04/13 04:07:25;;;;;;;11.60;8.13;;;;;;;19.83;52.20;100440.31;5450532;26;19995;-39
2024/04/13 04:09:51;;;;;;;12.45;8.35;;;;;;;19.71;52.51;100451.19;5427943;26;20428;-40
2024/04/13 04:12:16;;;;;;;15.93;8.52;;;;;;;19.62;52.06;100449.16;5414067;26;20428;-39
2024/04/13 04:14:41;;;;;;;12.85;8.48;;;;;;;19.56;52.37;100450.94;5413177;26;20344;-39
2024/04/13 04:17:07;;;;;;;14.25;9.18;;;;;;;19.36;52.74;100453.31;5414689;26;20010;-40
2024/04/13 04:19:32;;;;;;;16.63;9.18;;;;;;;19.43;52.17;100452.09;5414088;26;20019;-40
2024/04/13 04:21:58;;;;;;;16.73;8.52;;;;;;;19.39;52.70;100450.13;5414665;26;20002;-40
2024/04/13 04:24:23;;;;;;;15.93;9.30;;;;;;;19.52;52.15;100453.31;5414584;26;20010;-40
2024/04/13 04:26:49;;;;;;;12.65;8.80;;;;;;;19.53;52.29;100452.28;5414536;26;19995;-40
2024/04/13 04:29:15;;;;;;;14.45;8.50;;;;;;;19.30;52.82;100457.81;5414321;26;20069;-39
2024/04/13 04:31:41;;;;;;;12.95;7.20;;;;;;;19.21;52.94;100451.16;5415990;26;19996;-39
2024/04/13 04:34:07;;;;;;;14.35;7.40;;;;;;;19.41;52.19;100446.13;5415350;26;19996;-39
2024/04/13 04:36:33;;;;;;;9.13;7.32;;;;;;;19.34;51.96;100451.69;5414954;26;19995;-39
2024/04/13 04:38:58;;;;;;;10.98;7.40;;;;;;;19.58;52.05;100450.72;5415438;26;19992;-40
2024/04/13 04:41:23;;;;;;;9.27;6.90;;;;;;;19.73;51.26;100461.78;5415497;26;20007;-40
2024/04/13 04:43:49;;;;;;;11.73;6.55;;;;;;;19.84;50.51;100455.47;5415335;26;20003;-40
2024/04/13 04:46:15;;;;;;;24.55;16.65;;;;;;;20.01;49.68;100462.72;5414526;26;20003;-39
2024/04/13 04:48:40;;;;;;;18.80;12.43;;;;;;;19.98;50.04;100461.34;5415109;26;19999;-39
2024/04/13 04:51:07;;;;;;;12.32;7.65;;;;;;;19.92;49.60;100459.63;5414448;26;20003;-39
2024/04/13 04:53:32;;;;;;;12.93;7.60;;;;;;;19.66;50.18;100461.91;5414562;26;20340;-39
2024/04/13 04:55:58;;;;;;;13.40;7.30;;;;;;;19.28;50.93;100463.44;5414395;26;20018;-39
2024/04/13 04:58:24;;;;;;;12.35;7.50;;;;;;;19.29;51.13;100453.47;5412533;26;20432;-40
2024/04/13 05:00:50;;;;;;;10.13;7.20;;;;;;;19.37;50.60;100444.16;5413999;26;20482;-39
2024/04/13 05:03:15;;;;;;;10.15;6.97;;;;;;;19.65;50.21;100462.16;5416311;26;19996;-40
2024/04/13 05:05:42;;;;;;;12.70;7.63;;;;;;;19.84;50.05;100477.06;5417975;26;20001;-39
2024/04/13 05:08:07;;;;;;;11.63;7.07;;;;;;;20.04;49.88;100475.72;5417561;26;20040;-40
2024/04/13 05:10:32;;;;;;;13.18;7.22;;;;;;;20.13;49.29;100463.44;5418303;26;19996;-40
2024/04/13 05:12:58;;;;;;;12.55;7.63;;;;;;;19.88;50.34;100470.09;5417911;26;20006;-41
2024/04/13 05:15:23;;;;;;;14.32;8.55;;;;;;;19.97;49.72;100475.91;5418113;26;20380;-40
2024/04/13 05:17:49;;;;;;;15.05;8.05;;;;;;;19.99;49.75;100478.34;5418042;26;19991;-41
2024/04/13 05:20:14;;;;;;;14.15;8.52;;;;;;;19.99;50.04;100479.19;5443199;26;19995;-40
2024/04/13 05:22:39;;;;;;;16.35;8.60;;;;;;;20.08;56.55;100496.59;5453973;26;20014;-40
2024/04/13 05:25:06;;;;;;;17.60;8.85;;;;;;;20.39;52.09;100488.91;5453947;26;19999;-40
2024/04/13 05:27:31;;;;;;;20.50;10.73;;;;;;;20.05;61.29;100489.00;5453240;26;20431;-39
2024/04/13 05:30:02;;;;;;;19.65;10.10;;;;;;;19.72;53.99;100492.53;5453893;26;20062;-36
2024/04/13 05:32:28;;;;;;;15.68;9.75;;;;;;;19.72;53.52;100495.22;5453349;26;20010;-37
2024/04/13 05:34:53;;;;;;;15.27;9.90;;;;;;;19.88;57.19;100489.00;5480644;26;20009;-39
2024/04/13 05:37:18;;;;;;;16.73;9.90;;;;;;;19.89;56.76;100479.81;5483522;26;20052;-35
2024/04/13 05:39:44;;;;;;;17.08;10.07;;;;;;;20.53;50.25;100488.56;5452283;26;20009;-38
2024/04/13 05:42:09;;;;;;;17.42;10.82;;;;;;;20.65;49.49;100492.78;5474176;26;19998;-40
2024/04/13 05:44:34;;;;;;;17.65;10.13;;;;;;;20.35;49.64;100495.06;5461502;26;20018;-36
2024/04/13 05:47:00;;;;;;;19.67;10.15;;;;;;;20.36;50.84;100491.31;5475403;26;20013;-39
2024/04/13 05:49:25;;;;;;;16.17;9.93;;;;;;;20.38;51.89;100491.88;5487967;26;20446;-36
2024/04/13 05:51:50;;;;;;;15.45;9.60;;;;;;;20.60;58.11;100495.44;5489001;26;20057;-37
2024/04/13 05:54:16;;;;;;;16.05;9.25;;;;;;;20.89;56.60;100454.66;5488666;26;20078;-39
2024/04/13 05:56:41;;;;;;;16.73;10.07;;;;;;;21.58;47.53;100499.16;5488390;26;20012;-39
2024/04/13 05:59:07;;;;;;;15.02;10.13;;;;;;;21.58;47.43;100499.97;5488667;26;20079;-40
2024/04/13 06:01:34;;;;;;;19.10;10.23;;;;;;;21.66;50.93;100499.47;5488541;26;19994;-28
2024/04/13 06:03:59;;;;;;;19.17;10.10;;;;;;;21.88;48.33;100495.06;5488833;26;20012;-25
2024/04/13 06:06:25;;;;;;;18.38;10.23;;;;;;;21.75;49.10;100507.97;5488222;26;19998;-26
2024/04/13 06:08:50;;;;;;;19.83;11.48;;;;;;;21.99;47.91;100497.56;5488675;26;19998;-26
2024/04/13 06:11:15;;;;;;;15.52;9.90;;;;;;;22.02;46.05;100488.91;5488660;26;20010;-26
2024/04/13 06:13:41;;;;;;;15.80;10.25;;;;;;;21.70;45.95;100496.25;5488691;26;20426;-27
2024/04/13 06:16:07;;;;;;;14.70;9.65;;;;;;;21.61;47.16;100490.50;5487497;26;20006;-26
2024/04/13 06:18:32;;;;;;;15.10;9.90;;;;;;;21.47;47.33;100477.41;5489205;26;19998;-26
2024/04/13 06:20:58;;;;;;;14.27;9.43;;;;;;;21.54;47.08;100493.44;5452541;26;20009;-28
2024/04/13 06:23:23;;;;;;;18.38;9.45;;;;;;;21.78;46.07;100483.06;5451523;26;19994;-27
2024/04/13 06:25:49;;;;;;;13.65;9.68;;;;;;;21.74;46.06;100491.97;5467506;26;20457;-27
2024/04/13 06:28:15;;;;;;;16.02;9.68;;;;;;;21.83;46.31;100490.41;5466927;26;20013;-26
2024/04/13 06:30:42;;;;;;;15.27;9.98;;;;;;;21.67;46.30;100490.28;5451188;26;20439;-27
2024/04/13 06:33:09;;;;;;;18.08;9.43;;;;;;;21.88;46.46;100487.75;5452136;26;20002;-26
2024/04/13 06:35:35;;;;;;;13.25;8.73;;;;;;;22.04;45.80;100488.66;5451657;26;20006;-28
2024/04/13 06:38:00;;;;;;;13.52;8.63;;;;;;;22.36;47.51;100487.78;5452060;26;19994;-25
2024/04/13 06:40:25;;;;;;;12.90;8.60;;;;;;;22.78;44.33;100478.72;5451642;26;20062;-27
2024/04/13 06:42:51;;;;;;;12.10;8.75;;;;;;;22.91;45.17;100488.25;5433090;26;20009;-27
2024/04/13 06:45:17;;;;;;;14.40;8.60;;;;;;;23.02;46.19;100479.06;5451804;26;20327;-28
2024/04/13 06:47:42;;;;;;;13.75;9.02;;;;;;;23.36;43.61;100481.28;5449998;26;19998;-27
2024/04/13 06:50:08;;;;;;;18.73;8.88;;;;;;;23.44;42.96;100483.47;5438906;26;20438;-26
2024/04/13 06:52:33;;;;;;;14.63;8.88;;;;;;;23.57;43.02;100484.81;5451990;26;20068;-27
2024/04/13 06:54:59;;;;;;;15.35;8.52;;;;;;;23.26;45.36;100487.53;5451574;26;20006;-26
2024/04/13 06:57:26;;;;;;;16.88;8.82;;;;;;;23.25;44.76;100487.78;5451631;26;19994;-28
2024/04/13 06:59:51;;;;;;;14.90;8.48;;;;;;;23.64;43.87;100487.28;5451446;26;19994;-27
2024/04/13 07:02:17;;;;;;;14.43;8.40;;;;;;;24.17;43.07;100494.00;5435956;26;20069;-28
2024/04/13 07:04:43;;;;;;;14.45;8.18;;;;;;;24.07;41.38;100469.56;5441626;26;20763;-27
2024/04/13 07:07:08;;;;;;;17.30;8.45;;;;;;;24.72;41.35;100493.28;5443553;26;20009;-27
2024/04/13 07:09:34;;;;;;;15.77;7.95;;;;;;;25.36;40.14;100492.38;5450007;26;19999;-28
2024/04/13 07:11:59;;;;;;;12.98;7.93;;;;;;;25.68;38.82;100482.88;5429762;26;20006;-28
2024/04/13 07:14:25;;;;;;;17.75;7.75;;;;;;;26.32;37.27;100480.03;5419588;26;19999;-27
2024/04/13 07:16:51;;;;;;;17.67;8.38;;;;;;;26.21;38.16;100473.88;5450116;26;20427;-27
2024/04/13 07:19:18;;;;;;;11.15;7.93;;;;;;;26.39;37.67;100463.28;5447611;26;20010;-27
2024/04/13 07:21:44;;;;;;;12.30;7.13;;;;;;;27.08;36.46;100472.75;5449866;26;20010;-30
2024/04/13 07:24:10;;;;;;;8.88;7.05;;;;;;;27.54;35.40;100457.56;5450523;26;19995;-28
2024/04/13 07:26:35;;;;;;;8.27;6.78;;;;;;;27.57;34.92;100461.63;5448520;26;20010;-27
2024/04/13 07:29:02;;;;;;;12.27;6.80;;;;;;;27.77;35.46;100468.66;5447528;26;19995;-27
2024/04/13 07:31:28;;;;;;;11.90;6.85;;;;;;;27.55;35.78;100456.47;5447862;26;19991;-27
2024/04/13 07:33:53;;;;;;;10.00;6.97;;;;;;;27.49;35.46;100458.47;5448214;26;20039;-27
2024/04/13 07:36:18;;;;;;;9.50;6.80;;;;;;;27.99;34.77;100459.81;5448053;26;20002;-26
2024/04/13 07:38:44;;;;;;;12.52;6.35;;;;;;;28.42;34.81;100437.56;5447710;26;20003;-28
2024/04/13 07:41:09;;;;;;;7.28;6.10;;;;;;;28.79;34.36;100446.69;5448820;26;19995;-29
2024/04/13 07:43:35;;;;;;;15.45;6.85;;;;;;;29.55;33.55;100449.50;5448787;26;20458;-28
2024/04/13 07:46:00;;;;;;;10.00;6.45;;;;;;;29.84;32.24;100452.91;5450070;26;20316;-40
2024/04/13 07:48:26;;;;;;;14.68;7.93;;;;;;;30.21;31.91;100446.09;5448400;26;20005;-41
2024/04/13 07:50:51;;;;;;;18.35;7.60;;;;;;;29.65;31.40;100444.88;5449497;26;19991;-37
2024/04/13 07:53:16;;;;;;;13.93;6.80;;;;;;;30.21;31.65;100440.59;5449586;26;20003;-40
2024/04/13 07:55:42;;;;;;;12.15;6.13;;;;;;;30.01;31.50;100442.78;5447962;26;19995;-41
2024/04/13 07:58:07;;;;;;;10.43;6.50;;;;;;;30.55;31.29;100433.59;5449701;26;20039;-40
2024/04/13 08:00:32;;;;;;;12.32;6.40;;;;;;;31.12;30.17;100435.41;5449912;26;19995;-40
2024/04/13 08:02:58;;;;;;;10.45;6.43;;;;;;;31.67;29.50;100437.41;5450038;26;20010;-38
2024/04/13 08:05:23;;;;;;;9.80;6.55;;;;;;;31.47;29.31;100427.94;5450432;26;19999;-44
2024/04/13 08:07:48;;;;;;;13.65;7.55;;;;;;;31.20;29.78;100426.31;5450457;26;20479;-41
2024/04/13 08:10:14;;;;;;;12.60;7.20;;;;;;;30.94;30.06;100420.88;5450162;26;20003;-43
2024/04/13 08:12:39;;;;;;;9.73;6.50;;;;;;;31.70;29.32;100416.66;5451422;26;20009;-41
2024/04/13 08:15:08;;;;;;;9.40;6.03;;;;;;;31.33;29.21;100419.03;5450291;26;20003;-41
2024/04/13 08:17:34;;;;;;;11.15;6.30;;;;;;;31.88;28.47;100411.91;5450189;26;20018;-42
2024/04/13 08:20:00;;;;;;;11.68;6.45;;;;;;;31.68;28.59;100425.28;5450332;26;20373;-40
2024/04/13 08:22:25;;;;;;;9.13;6.00;;;;;;;32.31;28.94;100417.22;5449918;26;20010;-40
2024/04/13 08:24:53;;;;;;;18.00;6.43;;;;;;;32.22;28.15;100419.19;5449376;26;20431;-42
2024/04/13 08:27:18;;;;;;;17.52;6.32;;;;;;;32.44;28.00;100414.50;5450179;26;20337;-39
2024/04/13 08:29:50;;;;;;;14.30;6.68;;;;;;;32.09;28.67;100410.03;5449100;26;19998;-41
2024/04/13 08:32:15;;;;;;;9.95;5.72;;;;;;;31.90;28.61;100410.44;5449593;26;20030;-39
2024/04/13 08:34:41;;;;;;;13.35;5.53;;;;;;;32.53;28.85;100402.28;5449712;26;20642;-39
2024/04/13 08:37:06;;;;;;;10.25;6.05;;;;;;;32.36;28.59;100391.41;5449816;26;20444;-41
2024/04/13 08:39:35;;;;;;;9.25;5.82;;;;;;;32.82;28.30;100391.56;5452190;26;19994;-37
2024/04/13 08:42:08;;;;;;;14.35;6.68;;;;;;;33.21;27.70;100390.22;5453755;26;19995;-38
2024/04/13 08:44:34;;;;;;;10.57;5.40;;;;;;;32.67;27.98;100385.53;5451309;26;20048;-28
2024/04/13 08:47:00;;;;;;;7.65;5.80;;;;;;;32.32;28.27;100379.47;5454589;26;20006;-29
2024/04/13 08:49:39;;;;;;;10.50;5.35;;;;;;;32.26;28.85;100373.34;5454012;26;20013;-26
2024/04/13 08:52:06;;;;;;;9.90;5.38;;;;;;;32.83;28.01;100365.63;5455674;26;20019;-30
2024/04/13 08:54:32;;;;;;;11.77;5.70;;;;;;;32.87;27.63;100364.59;5453002;26;19987;-27
2024/04/13 08:57:00;;;;;;;8.00;5.70;;;;;;;33.62;27.67;100362.81;5453788;26;20063;-27
2024/04/13 08:59:27;;;;;;;7.65;5.32;;;;;;;34.02;27.05;100370.41;5455057;26;20408;-27
2024/04/13 09:01:56;;;;;;;11.50;5.60;;;;;;;33.55;27.27;100360.66;5452149;26;20006;-27
2024/04/13 09:04:21;;;;;;;;;;;;;;;32.67;28.41;100360.75;5453490;26;19995;-27
2024/04/13 09:06:48;;;;;;;11.07;5.28;;;;;;;32.50;28.53;100353.41;5452493;26;20357;-26
2024/04/13 09:09:14;;;;;;;12.70;6.35;;;;;;;32.29;29.13;100352.59;5454610;26;20034;-27
2024/04/13 09:11:40;;;;;;;11.00;5.72;;;;;;;32.92;28.56;100355.34;5454415;26;20010;-27
2024/04/13 09:14:07;;;;;;;9.98;5.80;;;;;;;33.41;27.58;100352.69;5453789;26;19994;-26
2024/04/13 09:16:33;;;;;;;13.35;5.32;;;;;;;33.05;28.19;100345.94;5453956;26;20329;-27
2024/04/13 09:18:59;;;;;;;8.55;5.03;;;;;;;33.01;27.82;100338.69;5454133;26;19995;-26
2024/04/13 09:21:26;;;;;;;10.13;8.15;;;;;;;33.22;27.31;100336.69;5454393;26;20003;-26
2024/04/13 09:23:55;;;;;;;9.98;5.95;;;;;;;34.30;26.77;100337.38;5454049;26;19991;-27
2024/04/13 09:26:22;;;;;;;10.40;5.20;;;;;;;33.42;27.37;100337.75;5450603;26;20006;-28
2024/04/13 09:28:47;;;;;;;7.05;4.88;;;;;;;33.38;27.69;100327.78;5417913;26;20019;-28
2024/04/13 09:31:14;;;;;;;9.38;5.15;;;;;;;33.26;27.42;100323.84;5417915;26;20321;-29
2024/04/13 09:33:40;;;;;;;9.02;4.88;;;;;;;33.76;27.20;100316.41;5431822;26;19995;-27
2024/04/13 09:36:08;;;;;;;8.45;5.15;;;;;;;33.93;27.40;100322.81;5453333;26;20010;-26
2024/04/13 09:38:33;;;;;;;9.27;5.07;;;;;;;34.08;26.27;100317.41;5437702;26;19995;-27
2024/04/13 09:40:59;;;;;;;11.98;6.05;;;;;;;33.45;26.91;100315.00;5444757;26;20031;-27
2024/04/13 09:43:25;;;;;;;9.75;5.80;;;;;;;33.72;27.13;100320.19;5452527;26;20001;-26
2024/04/13 09:45:58;;;;;;;12.65;5.50;;;;;;;33.85;26.77;100322.63;5454238;26;20622;-28
2024/04/13 09:48:23;;;;;;;11.52;5.40;;;;;;;33.31;27.80;100309.81;5452725;26;20006;-26
2024/04/13 09:50:49;;;;;;;10.07;5.13;;;;;;;33.34;27.31;100308.34;5452281;26;19995;-29
2024/04/13 09:53:18;;;;;;;11.18;5.38;;;;;;;33.59;27.08;100311.09;5452582;26;19999;-27
2024/04/13 09:55:45;;;;;;;8.00;5.03;;;;;;;33.21;27.84;100299.25;5452810;26;20018;-27
2024/04/13 09:58:14;;;;;;;7.80;4.88;;;;;;;34.08;27.37;100295.31;5453380;26;20010;-28
2024/04/13 10:00:41;;;;;;;8.30;5.28;;;;;;;34.50;26.22;100296.09;5448546;26;20009;-28
2024/04/13 10:03:06;;;;;;;5.72;4.65;;;;;;;34.13;26.72;100299.78;5451148;26;20017;-27
2024/04/13 10:05:35;;;;;;;12.52;4.88;;;;;;;34.16;26.26;100290.81;5453146;26;20439;-27
2024/04/13 10:08:03;;;;;;;9.88;5.15;;;;;;;34.16;25.97;100288.06;5448648;26;20009;-27
2024/04/13 10:10:29;;;;;;;8.10;5.27;;;;;;;34.33;26.51;100294.44;5452832;26;19991;-27
2024/04/13 10:12:56;;;;;;;9.35;5.03;;;;;;;34.28;25.46;100278.94;5452793;26;20003;-27
2024/04/13 10:15:22;;;;;;;7.22;5.30;;;;;;;33.79;25.22;100273.50;5453883;26;20064;-27
2024/04/13 10:17:50;;;;;;;6.93;4.90;;;;;;;34.29;24.56;100275.03;5452990;26;19995;-26
2024/04/13 10:20:15;;;;;;;6.28;4.60;;;;;;;34.18;25.36;100269.19;5453938;26;19994;-28
2024/04/13 10:22:54;;;;;;;10.70;4.80;;;;;;;34.56;24.44;100267.88;5453583;26;20006;-27
2024/04/13 10:25:26;;;;;;;8.13;4.88;;;;;;;34.98;24.43;100278.47;5452757;26;19990;-27
2024/04/13 10:28:12;;;;;;;7.90;5.50;;;;;;;35.25;24.75;100267.72;5453569;26;19999;-27
2024/04/13 10:30:42;;;;;;;8.77;5.07;;;;;;;35.19;25.25;100260.84;5453317;26;19995;-27
2024/04/13 10:33:17;;;;;;;8.68;5.28;;;;;;;34.58;25.08;100265.56;5453415;26;20442;-27
2024/04/13 10:35:56;;;;;;;10.05;5.28;;;;;;;35.29;24.96;100260.31;5453140;26;20019;-28
2024/04/13 10:38:27;;;;;;;7.70;4.70;;;;;;;34.85;24.47;100260.38;5452781;26;19999;-27
2024/04/13 10:40:52;;;;;;;10.57;5.50;;;;;;;35.58;23.82;100250.69;5452541;26;20425;-28
2024/04/13 10:43:19;;;;;;;12.60;5.75;;;;;;;36.16;23.82;100251.97;5453237;26;20055;-28
2024/04/13 10:46:02;;;;;;;5.88;4.65;;;;;;;35.86;23.54;100246.19;5452759;26;19995;-28
2024/04/13 10:48:30;;;;;;;9.65;4.88;;;;;;;35.86;23.46;100246.19;5448470;26;20015;-26
2024/04/13 10:50:57;;;;;;;7.45;4.22;;;;;;;35.56;22.88;100238.38;5451509;26;20003;-27
2024/04/13 10:53:25;;;;;;;12.55;5.78;;;;;;;35.92;23.34;100244.72;5452206;26;20003;-26
2024/04/13 10:55:52;;;;;;;9.07;4.70;;;;;;;36.33;22.43;100243.22;5450246;26;20013;-26
2024/04/13 10:58:17;;;;;;;10.65;5.47;;;;;;;36.31;22.59;100240.03;5451486;26;20439;-27
2024/04/13 11:00:49;;;;;;;8.65;4.60;;;;;;;36.33;22.15;100240.47;5452292;26;20009;-27
2024/04/13 11:03:16;;;;;;;4.95;4.18;;;;;;;35.82;21.98;100232.28;5450438;26;20465;-27
2024/04/13 11:05:44;;;;;;;7.97;4.72;;;;;;;35.22;23.19;100238.00;5447510;26;20435;-27
2024/04/13 11:08:10;;;;;;;7.82;4.65;;;;;;;35.85;22.48;100245.38;5452119;26;20023;-27
2024/04/13 11:10:45;;;;;;;9.07;4.30;;;;;;;35.82;22.24;100241.38;5451006;26;20003;-37
2024/04/13 11:13:10;;;;;;;9.40;4.78;;;;;;;35.22;23.42;100238.00;5450041;26;20453;-40
2024/04/13 11:15:35;;;;;;;7.88;4.60;;;;;;;35.62;22.91;100236.94;5452586;26;19999;-39